Time;durP1;ratioP1;P1;durP2;ratioP2;P2;SDS_P1;SDS_P2;PMS_P1;PMS_P2;Temp;Humidity;BMP_temperature;BMP_pressure;BME280_temperature;BME280_humidity;BME280_pressure;Samples;Min_cycle;Max_cycle;Signal;HPM_P1;HPM_P2
2022/08/26 00:00:46;;;;;;;1999.90;999.90;;;;;;;18.18;73.68;98966.34;8187281;28;20055;-79
2022/08/26 00:04:54;;;;;;;1999.90;999.90;;;;;;;18.15;74.00;98962.09;8226304;28;20372;-79
2022/08/26 00:08:56;;;;;;;1999.90;999.90;;;;;;;18.08;73.92;98958.00;8206749;28;20189;-80
2022/08/26 00:12:57;;;;;;;1999.90;999.90;;;;;;;17.97;74.21;98949.72;8189297;28;20347;-80
2022/08/26 00:16:59;;;;;;;1999.90;999.90;;;;;;;17.93;74.66;98958.63;8194781;28;20051;-80
2022/08/26 00:21:02;;;;;;;1999.90;999.90;;;;;;;17.92;74.55;98956.91;8190346;28;20105;-79
2022/08/26 00:25:07;;;;;;;1999.90;999.90;;;;;;;17.91;74.78;98953.44;8190519;28;20168;-80
2022/08/26 00:29:09;;;;;;;1999.90;999.90;;;;;;;17.89;75.44;98955.28;8188510;28;20071;-80
2022/08/26 00:33:10;;;;;;;1999.90;999.90;;;;;;;17.92;75.47;98959.53;8181085;28;20055;-80
2022/08/26 00:37:12;;;;;;;1999.90;999.90;;;;;;;17.87;75.38;98962.38;8192162;28;20126;-80
2022/08/26 00:41:18;;;;;;;1999.90;999.90;;;;;;;17.84;75.04;98964.25;8203519;28;20313;-80
2022/08/26 00:45:21;;;;;;;1999.90;999.90;;;;;;;17.73;75.67;98960.28;8203897;28;20058;-80
2022/08/26 00:49:43;;;;;;;1999.90;999.90;;;;;;;17.71;75.37;98959.50;8204810;28;20086;-80
2022/08/26 00:53:49;;;;;;;1999.90;999.90;;;;;;;17.71;75.94;98963.91;8222164;28;20514;-80
2022/08/26 00:57:52;;;;;;;1999.90;999.90;;;;;;;17.71;76.48;98966.53;8196241;28;20841;-80
2022/08/26 01:02:02;;;;;;;1999.90;999.90;;;;;;;17.69;77.08;98974.47;8210462;28;20094;-80
2022/08/26 01:06:05;;;;;;;1999.90;999.90;;;;;;;17.70;77.15;98970.06;8213560;28;20039;-79
2022/08/26 01:10:18;;;;;;;1999.90;999.90;;;;;;;17.68;76.70;98970.13;8205896;28;20086;-80
2022/08/26 01:14:21;;;;;;;1999.90;999.90;;;;;;;17.57;76.36;98960.94;8208057;28;20815;-79
2022/08/26 01:18:24;;;;;;;1999.90;999.90;;;;;;;17.55;77.08;98968.88;8189281;28;20066;-79
2022/08/26 01:22:31;;;;;;;1999.90;999.90;;;;;;;17.48;76.84;98968.25;8197609;28;20122;-79
2022/08/26 01:26:40;;;;;;;1999.90;999.90;;;;;;;17.37;77.26;98972.22;8223762;28;20056;-79
2022/08/26 01:30:44;;;;;;;1999.90;999.90;;;;;;;17.34;77.86;98977.59;8191620;28;20134;-80
2022/08/26 01:34:47;;;;;;;1999.90;999.90;;;;;;;17.38;77.66;98974.78;8196246;28;20063;-79
2022/08/26 01:38:48;;;;;;;1999.90;999.90;;;;;;;17.39;77.76;98975.63;8194120;28;20122;-80
2022/08/26 01:42:51;;;;;;;1999.90;999.90;;;;;;;17.36;77.14;98979.22;8195083;28;20111;-79
2022/08/26 01:46:55;;;;;;;1999.90;999.90;;;;;;;17.34;77.59;98975.81;8215826;28;20053;-79
2022/08/26 01:50:58;;;;;;;1999.90;999.90;;;;;;;17.31;78.39;98980.34;8196038;28;20050;-79
2022/08/26 01:55:08;;;;;;;1999.90;999.90;;;;;;;17.27;78.42;98976.97;8212349;28;20039;-79
2022/08/26 01:59:11;;;;;;;;;;;;;;;17.26;78.89;98980.50;8198437;28;20063;-80
2022/08/26 02:03:15;;;;;;;1999.90;999.90;;;;;;;17.17;78.11;98988.72;8193655;28;19937;-79
2022/08/26 02:07:25;;;;;;;1999.90;999.90;;;;;;;17.05;78.41;98989.16;8198845;28;21690;-79
2022/08/26 02:11:27;;;;;;;1999.90;999.90;;;;;;;17.01;79.19;98982.34;8206919;28;20062;-80
2022/08/26 02:15:41;;;;;;;1999.90;999.90;;;;;;;17.04;79.31;98990.06;8211552;28;20035;-80
2022/08/26 02:19:46;;;;;;;1999.90;999.90;;;;;;;17.03;79.38;98996.25;8196370;28;20573;-79
2022/08/26 02:23:48;;;;;;;1999.90;999.90;;;;;;;17.04;78.94;99001.44;8200823;28;20126;-79
2022/08/26 02:27:51;;;;;;;1999.90;999.90;;;;;;;17.04;79.09;98995.31;8195569;28;20453;-80
2022/08/26 02:31:54;;;;;;;1999.90;999.90;;;;;;;17.01;79.67;98988.44;8197826;28;20054;-79
2022/08/26 02:35:56;;;;;;;1999.90;999.90;;;;;;;17.04;79.84;98990.06;8222617;28;20807;-80
2022/08/26 02:39:58;;;;;;;1999.90;999.90;;;;;;;16.97;79.74;98993.84;8215136;28;20616;-80
2022/08/26 02:43:59;;;;;;;1999.90;999.90;;;;;;;16.93;79.74;98993.13;8190693;28;20185;-79
2022/08/26 02:48:10;;;;;;;1999.90;999.90;;;;;;;16.89;79.65;98994.16;8208805;28;20040;-80
2022/08/26 02:52:12;;;;;;;1999.90;999.90;;;;;;;16.79;79.49;98993.59;8193690;29;20063;-79
2022/08/26 02:56:14;;;;;;;1999.90;999.90;;;;;;;16.74;80.26;98989.44;8212904;28;20038;-80
2022/08/26 03:00:15;;;;;;;1999.90;999.90;;;;;;;16.72;80.37;98993.91;8207525;28;20074;-80
2022/08/26 03:04:17;;;;;;;1999.90;999.90;;;;;;;16.69;80.16;98991.34;8194626;28;20086;-80
2022/08/26 03:08:26;;;;;;;1999.90;999.90;;;;;;;16.61;80.28;98995.09;8214935;28;20043;-80
2022/08/26 03:12:27;;;;;;;1999.90;999.90;;;;;;;16.55;80.34;98984.81;8202176;28;20478;-79
2022/08/26 03:16:31;;;;;;;;;;;;;;;16.54;81.47;98988.38;8190025;28;20620;-80
2022/08/26 03:20:40;;;;;;;1999.90;999.90;;;;;;;16.52;81.09;98986.72;8203139;28;19933;-80
2022/08/26 03:24:42;;;;;;;1999.90;999.90;;;;;;;16.47;81.15;98986.84;8194184;28;20126;-80
2022/08/26 03:33:10;;;;;;;1999.90;999.90;;;;;;;16.46;81.44;98985.13;8186714;28;20070;-80
2022/08/26 03:37:12;;;;;;;1999.90;999.90;;;;;;;16.40;81.59;98984.50;8207303;28;20404;-80
2022/08/26 03:41:21;;;;;;;1999.90;999.90;;;;;;;16.38;82.28;98981.94;8194108;28;20074;-80
2022/08/26 03:45:23;;;;;;;1999.90;999.90;;;;;;;16.37;82.03;98982.00;8190526;28;20444;-79
2022/08/26 03:49:31;;;;;;;1999.90;999.90;;;;;;;16.30;81.63;98976.94;8203700;28;20059;-80
2022/08/26 03:53:32;;;;;;;1999.90;999.90;;;;;;;16.26;82.55;98974.47;8190705;28;20453;-80
2022/08/26 03:57:36;;;;;;;1999.90;999.90;;;;;;;16.25;82.44;98968.38;8168911;29;20047;-80
2022/08/26 04:01:37;;;;;;;1999.90;999.90;;;;;;;16.23;82.70;98964.97;8184531;28;20078;-80
2022/08/26 04:05:39;;;;;;;1999.90;999.90;;;;;;;16.23;83.03;98964.13;8190998;28;20093;-80
2022/08/26 04:09:41;;;;;;;1999.90;999.90;;;;;;;16.21;83.42;98965.94;8175396;29;20035;-80
2022/08/26 04:13:43;;;;;;;1999.90;999.90;;;;;;;16.18;83.39;98968.66;8185575;28;20048;-79
2022/08/26 04:17:44;;;;;;;1999.90;999.90;;;;;;;16.09;83.06;98967.19;8209707;28;20682;-80
2022/08/26 04:21:49;;;;;;;1999.90;999.90;;;;;;;16.02;83.19;98978.78;8191322;28;20073;-80
2022/08/26 04:25:51;;;;;;;1999.90;999.90;;;;;;;16.06;82.66;98980.41;8186003;28;20051;-79
2022/08/26 04:29:53;;;;;;;1999.90;999.90;;;;;;;16.01;83.69;98980.56;8192443;28;20425;-80
2022/08/26 04:33:55;;;;;;;1999.90;999.90;;;;;;;16.01;83.93;98982.31;8190108;28;20803;-80
2022/08/26 04:37:57;;;;;;;1999.90;999.90;;;;;;;16.00;84.22;98978.84;8195574;28;20535;-79
2022/08/26 04:41:59;;;;;;;1999.90;999.90;;;;;;;16.00;84.36;98978.00;8213305;28;20516;-80
2022/08/26 04:46:04;;;;;;;1999.90;999.90;;;;;;;16.02;85.08;98978.78;8197477;28;20051;-80
2022/08/26 04:50:07;;;;;;;1999.90;999.90;;;;;;;16.04;85.15;98978.75;8187112;28;20131;-80
2022/08/26 04:54:12;;;;;;;1999.90;999.90;;;;;;;16.09;85.13;98982.06;8215549;28;20050;-80
2022/08/26 04:58:18;;;;;;;1999.90;999.90;;;;;;;16.14;84.96;98986.22;8226236;28;20047;-80
2022/08/26 05:02:20;;;;;;;1999.90;999.90;;;;;;;16.11;84.38;98991.56;8188771;28;20439;-81
2022/08/26 05:06:21;;;;;;;1999.90;999.90;;;;;;;16.14;84.37;98991.47;8218864;28;20086;-80
2022/08/26 05:10:23;;;;;;;1999.90;999.90;;;;;;;16.23;84.03;98988.56;8214094;28;20047;-81
2022/08/26 05:14:26;;;;;;;1999.90;999.90;;;;;;;16.28;83.83;98999.72;8212696;28;20126;-80
2022/08/26 05:18:36;;;;;;;1999.90;999.90;;;;;;;16.36;83.91;98996.00;8212653;28;20376;-80
2022/08/26 05:22:37;;;;;;;1999.90;999.90;;;;;;;16.55;84.20;98997.94;8199645;28;20046;-80
2022/08/26 05:26:39;;;;;;;1999.90;999.90;;;;;;;16.79;83.39;99011.97;8206711;28;20043;-80
2022/08/26 05:30:42;;;;;;;1999.90;999.90;;;;;;;17.02;82.34;99005.03;8188970;28;20422;-80
2022/08/26 05:34:44;;;;;;;1999.90;999.90;;;;;;;17.22;81.83;99005.13;8205375;28;20062;-80
2022/08/26 05:38:47;;;;;;;1999.90;999.90;;;;;;;17.40;80.82;99003.59;8206043;28;20058;-81
2022/08/26 05:42:55;;;;;;;1999.90;999.90;;;;;;;17.69;79.70;99010.38;8201904;28;20039;-80
2022/08/26 05:46:57;;;;;;;1999.90;999.90;;;;;;;17.98;78.82;99014.47;8209939;28;20381;-81
2022/08/26 05:51:03;;;;;;;1999.90;999.90;;;;;;;18.26;78.42;99015.03;8190794;28;21074;-81
2022/08/26 05:55:05;;;;;;;1999.90;999.90;;;;;;;18.94;75.58;99011.25;8196019;28;20313;-81
2022/08/26 05:59:12;;;;;;;1999.90;999.90;;;;;;;19.52;73.74;99019.13;8197946;28;20524;-81
2022/08/26 06:03:15;;;;;;;1999.90;999.90;;;;;;;20.14;71.07;99010.03;8195197;28;20062;-81
2022/08/26 06:08:09;;;;;;;1999.90;999.90;;;;;;;20.55;69.09;99007.13;8199355;28;20059;-81
2022/08/26 06:11:57;;;;;;;1999.90;999.90;;;;;;;20.95;68.08;99005.88;8234820;28;20077;-79
2022/08/26 06:16:06;;;;;;;1999.90;999.90;;;;;;;21.31;65.41;99008.38;8193515;28;20047;-79
2022/08/26 06:20:09;;;;;;;1999.90;999.90;;;;;;;21.63;64.97;99017.19;8194388;28;20053;-78
2022/08/26 06:28:38;;;;;;;1999.90;999.90;;;;;;;21.66;64.93;99006.44;8224985;28;20079;-81
2022/08/26 06:32:47;;;;;;;1999.90;999.90;;;;;;;22.00;63.96;99015.97;8195265;28;20047;-81
2022/08/26 06:36:50;;;;;;;1999.90;999.90;;;;;;;22.53;61.89;99013.81;8208002;28;20558;-81
2022/08/26 06:40:53;;;;;;;1999.90;999.90;;;;;;;23.11;60.65;99011.16;8230079;28;20043;-81
2022/08/26 06:45:03;;;;;;;1999.90;999.90;;;;;;;23.62;59.14;99013.34;8195734;28;20043;-81
2022/08/26 06:49:07;;;;;;;1999.90;999.90;;;;;;;23.77;56.11;99020.31;8172448;28;20162;-81
2022/08/26 06:53:13;;;;;;;1999.90;999.90;;;;;;;24.04;55.04;99021.16;8209979;28;20043;-81
2022/08/26 06:57:22;;;;;;;1999.90;999.90;;;;;;;24.37;55.58;99019.91;8192267;28;20054;-81
2022/08/26 07:01:36;;;;;;;1999.90;999.90;;;;;;;24.70;53.89;99012.31;8190879;28;20663;-81
2022/08/26 07:06:03;;;;;;;1999.90;999.90;;;;;;;25.13;50.82;99013.84;8188896;28;20051;-81
2022/08/26 07:10:14;;;;;;;1999.90;999.90;;;;;;;25.55;50.45;99020.59;8191766;28;20055;-81
2022/08/26 07:14:17;;;;;;;1999.90;999.90;;;;;;;25.91;48.89;99019.78;8187542;28;20624;-81
2022/08/26 07:18:23;;;;;;;1999.90;999.90;;;;;;;26.18;47.57;99030.19;8179105;29;20055;-80
2022/08/26 07:22:25;;;;;;;1999.90;999.90;;;;;;;26.52;46.72;99025.88;8198299;28;20491;-80
2022/08/26 07:26:29;;;;;;;;;;;;;;;26.70;45.16;99020.97;8198256;28;20555;-81
2022/08/26 07:30:30;;;;;;;1999.90;999.90;;;;;;;26.88;45.05;99032.00;8194558;28;20025;-80
2022/08/26 07:34:33;;;;;;;1999.90;999.90;;;;;;;27.21;44.75;99033.91;8187056;28;20062;-80
2022/08/26 07:38:43;;;;;;;1999.90;999.90;;;;;;;27.47;43.80;99042.50;8149041;29;20047;-80
2022/08/26 07:42:51;;;;;;;1999.90;999.90;;;;;;;27.75;43.65;99031.38;8131103;29;20046;-80
2022/08/26 07:46:52;;;;;;;1999.90;999.90;;;;;;;27.96;44.14;99032.28;8142409;29;20063;-80
2022/08/26 07:50:54;;;;;;;1999.90;999.90;;;;;;;28.13;43.63;99038.06;8166320;29;20028;-80
2022/08/26 07:54:59;;;;;;;1999.90;999.90;;;;;;;28.21;43.40;99041.81;8165886;29;20044;-81
2022/08/26 07:59:07;;;;;;;1999.90;999.90;;;;;;;28.26;41.74;99033.44;8162862;29;20078;-77
2022/08/26 08:03:16;;;;;;;1999.90;999.90;;;;;;;28.17;42.93;99042.16;8137429;29;20071;-79
2022/08/26 08:07:18;;;;;;;1999.90;999.90;;;;;;;27.94;43.03;99042.22;8148921;29;20058;-78
2022/08/26 08:11:21;;;;;;;1999.90;999.90;;;;;;;27.71;43.02;99047.75;8129561;29;20048;-76
2022/08/26 08:15:31;;;;;;;1999.90;999.90;;;;;;;27.44;43.22;99048.09;8154568;29;20080;-78
2022/08/26 08:19:42;;;;;;;1999.90;999.90;;;;;;;27.22;44.41;99056.94;8166749;29;20853;-78
2022/08/26 08:23:44;;;;;;;1999.90;999.90;;;;;;;27.09;44.65;99049.88;8152969;29;20044;-79
2022/08/26 08:27:47;;;;;;;1999.90;999.90;;;;;;;26.99;44.89;99053.38;8156147;29;20052;-78
2022/08/26 08:31:58;;;;;;;1999.90;999.90;;;;;;;26.89;45.02;99050.56;8142547;29;20126;-79
2022/08/26 08:36:00;;;;;;;1999.90;999.90;;;;;;;26.89;46.32;99058.53;8172521;28;20065;-80
2022/08/26 08:40:15;;;;;;;1999.90;999.90;;;;;;;26.84;47.38;99057.22;8173720;28;20448;-79
2022/08/26 08:44:19;;;;;;;1999.90;999.90;;;;;;;26.76;45.67;99058.66;8207400;28;20051;-79
2022/08/26 08:48:26;;;;;;;1999.90;999.90;;;;;;;26.69;45.62;99049.41;8201125;28;20066;-80
2022/08/26 08:52:35;;;;;;;1999.90;999.90;;;;;;;26.71;46.48;99051.97;8181962;28;20051;-79
2022/08/26 08:56:39;;;;;;;1999.90;999.90;;;;;;;26.75;45.63;99051.63;8197096;28;20047;-80
2022/08/26 09:01:03;;;;;;;1999.90;999.90;;;;;;;26.83;46.22;99051.03;8197035;28;20106;-80
2022/08/26 09:05:30;;;;;;;1999.90;999.90;;;;;;;26.92;45.30;99060.13;8193667;28;20161;-79
2022/08/26 09:09:37;;;;;;;1999.90;999.90;;;;;;;27.04;45.55;99059.22;8198791;28;20133;-79
2022/08/26 09:13:43;;;;;;;1999.90;999.90;;;;;;;27.25;46.20;99056.69;8184634;28;20150;-80
2022/08/26 09:18:09;;;;;;;1999.90;999.90;;;;;;;27.51;44.74;99057.31;8205406;28;20138;-80
2022/08/26 09:22:27;;;;;;;1999.90;999.90;;;;;;;27.65;43.80;99060.63;8181870;28;20436;-79
2022/08/26 09:26:38;;;;;;;1999.90;999.90;;;;;;;27.72;43.28;99065.44;8184714;28;20050;-78
2022/08/26 09:30:39;;;;;;;1999.90;999.90;;;;;;;27.86;43.77;99065.19;8207035;28;20423;-79
2022/08/26 09:35:34;;;;;;;1999.90;999.90;;;;;;;27.96;42.87;99058.13;8173921;28;20567;-79
2022/08/26 09:39:37;;;;;;;1999.90;999.90;;;;;;;28.03;43.79;99061.16;8191678;28;20137;-79
2022/08/26 09:43:39;;;;;;;1999.90;999.90;;;;;;;28.05;43.83;99056.53;8197364;28;20035;-79
2022/08/26 09:47:44;;;;;;;1999.90;999.90;;;;;;;28.18;45.05;99055.38;8209683;28;20142;-79
2022/08/26 09:51:46;;;;;;;1999.90;999.90;;;;;;;28.37;45.03;99046.75;8201256;28;20381;-78
2022/08/26 09:56:14;;;;;;;1999.90;999.90;;;;;;;28.42;44.93;99052.56;8206962;28;20066;-79
2022/08/26 10:00:29;;;;;;;1999.90;999.90;;;;;;;28.50;45.34;99059.91;8197043;28;20043;-79
2022/08/26 10:04:30;;;;;;;1999.90;999.90;;;;;;;28.59;44.63;99045.81;8199470;28;20055;-79
2022/08/26 10:08:43;;;;;;;1999.90;999.90;;;;;;;28.59;44.11;99052.00;8198905;28;20089;-78
2022/08/26 10:13:16;;;;;;;1999.90;999.90;;;;;;;28.49;43.84;99045.72;8195139;28;20047;-78
2022/08/26 10:17:31;;;;;;;1999.90;999.90;;;;;;;28.46;43.87;99040.63;8198277;28;20510;-79
2022/08/26 10:21:51;;;;;;;1999.90;999.90;;;;;;;28.44;43.40;99044.41;8211220;28;20070;-78
2022/08/26 10:26:07;;;;;;;1999.90;999.90;;;;;;;28.50;43.98;99041.22;8199607;28;20043;-78
2022/08/26 10:30:14;;;;;;;1999.90;999.90;;;;;;;28.50;42.93;99039.41;8193417;28;20047;-77
2022/08/26 10:34:23;;;;;;;1999.90;999.90;;;;;;;28.52;43.13;99040.09;8220251;28;20153;-76
2022/08/26 10:38:31;;;;;;;1999.90;999.90;;;;;;;28.54;42.25;99037.31;8206696;28;20049;-76
2022/08/26 10:42:39;;;;;;;1999.90;999.90;;;;;;;28.42;41.52;99038.34;8210533;28;20563;-77
2022/08/26 10:46:46;;;;;;;1999.90;999.90;;;;;;;28.36;41.75;99031.69;8205556;28;20047;-76
2022/08/26 10:50:48;;;;;;;1999.90;999.90;;;;;;;28.34;41.95;99030.97;8189041;28;20038;-77
2022/08/26 10:55:22;;;;;;;1999.90;999.90;;;;;;;28.33;42.60;99031.09;8205384;28;20059;-77
2022/08/26 10:59:47;;;;;;;1999.90;999.90;;;;;;;28.34;41.71;99022.97;8188685;28;20086;-77
2022/08/26 11:04:19;;;;;;;1999.90;999.90;;;;;;;28.57;41.59;99021.03;8205213;28;20158;-78
2022/08/26 11:08:28;;;;;;;1999.90;999.90;;;;;;;28.79;42.05;99017.38;8193043;28;20105;-77
2022/08/26 11:12:35;;;;;;;1999.90;999.90;;;;;;;28.80;42.01;99017.25;8201485;28;20066;-78
2022/08/26 11:16:40;;;;;;;1999.90;999.90;;;;;;;28.79;43.14;99017.38;8206164;28;20053;-78
2022/08/26 11:20:45;;;;;;;1999.90;999.90;;;;;;;28.80;43.23;99011.06;8201073;28;20038;-78
2022/08/26 11:24:53;;;;;;;1999.90;999.90;;;;;;;28.81;43.53;99020.78;8203778;28;20042;-78
2022/08/26 11:28:57;;;;;;;1999.90;999.90;;;;;;;28.81;45.00;99013.59;8204851;28;20105;-78
2022/08/26 11:33:42;;;;;;;1999.90;999.90;;;;;;;29.05;44.92;99021.34;8196422;28;20038;-78
2022/08/26 11:37:49;;;;;;;1999.90;999.90;;;;;;;29.32;43.84;99022.63;8196313;28;20550;-78
2022/08/26 11:41:58;;;;;;;1999.90;999.90;;;;;;;29.28;43.84;99038.09;8191373;28;20516;-79
2022/08/26 11:46:07;;;;;;;1999.90;999.90;;;;;;;29.10;44.46;99035.19;8177209;28;20070;-79
2022/08/26 11:50:24;;;;;;;1999.90;999.90;;;;;;;28.95;44.21;99041.88;8179144;28;20138;-79
2022/08/26 11:54:26;;;;;;;1999.90;999.90;;;;;;;28.86;45.03;99031.94;8191593;28;20066;-78
2022/08/26 11:58:42;;;;;;;1999.90;999.90;;;;;;;28.88;44.56;99027.31;8196754;28;20047;-80
2022/08/26 12:02:43;;;;;;;1999.90;999.90;;;;;;;28.87;45.09;99033.63;8197044;28;20043;-80
2022/08/26 12:06:49;;;;;;;1999.90;999.90;;;;;;;28.79;45.81;99026.25;8198186;28;20079;-79
2022/08/26 12:11:08;;;;;;;1999.90;999.90;;;;;;;28.75;45.67;99027.50;8195291;28;20074;-79
2022/08/26 12:15:15;;;;;;;1999.90;999.90;;;;;;;28.76;46.08;99026.53;8192334;28;20154;-80
2022/08/26 12:19:25;;;;;;;1999.90;999.90;;;;;;;28.78;46.18;99026.38;8182897;28;20038;-79
2022/08/26 12:23:33;;;;;;;1999.90;999.90;;;;;;;28.83;46.09;99016.16;8173560;29;20468;-80
2022/08/26 12:27:40;;;;;;;1999.90;999.90;;;;;;;28.85;46.99;99019.53;8188171;29;20047;-79
2022/08/26 12:31:42;;;;;;;1999.90;999.90;;;;;;;29.07;46.75;99022.06;8155662;28;20047;-79
2022/08/26 12:35:51;;;;;;;1999.90;999.90;;;;;;;29.24;46.19;99019.75;8168763;28;20467;-79
2022/08/26 12:40:43;;;;;;;1999.90;999.90;;;;;;;29.35;45.53;99025.88;8187948;28;20057;-80
2022/08/26 12:45:05;;;;;;;1999.90;999.90;;;;;;;29.51;45.55;99030.75;8189665;28;20057;-79
2022/08/26 12:49:07;;;;;;;1999.90;999.90;;;;;;;29.50;45.64;99033.56;8190942;28;20078;-79
2022/08/26 12:53:08;;;;;;;1999.90;999.90;;;;;;;29.40;45.24;99023.63;8193870;28;20038;-79
2022/08/26 12:57:11;;;;;;;1999.90;999.90;;;;;;;29.24;45.76;99009.06;8193923;28;20039;-79
2022/08/26 13:01:21;;;;;;;1999.90;999.90;;;;;;;29.04;45.81;99014.31;8162934;29;20928;-78
2022/08/26 13:05:41;;;;;;;1999.90;999.90;;;;;;;29.09;46.32;99004.09;8171877;29;20047;-78
2022/08/26 13:09:42;;;;;;;1999.90;999.90;;;;;;;29.11;45.98;99003.97;8186322;28;20081;-78
2022/08/26 13:13:49;;;;;;;1999.90;999.90;;;;;;;29.18;46.39;99013.13;8191826;28;20070;-78
2022/08/26 13:17:50;;;;;;;1999.90;999.90;;;;;;;29.10;45.44;99007.63;8196209;28;20046;-78
2022/08/26 13:21:59;;;;;;;1999.90;999.90;;;;;;;29.07;45.67;99002.50;8211562;28;20047;-77
2022/08/26 13:26:07;;;;;;;1999.90;999.90;;;;;;;28.93;45.68;99010.91;8188426;28;20039;-78
2022/08/26 13:30:11;;;;;;;1999.90;999.90;;;;;;;28.68;46.20;99004.09;8183481;28;20075;-78
2022/08/26 13:34:19;;;;;;;1999.90;999.90;;;;;;;28.49;46.63;99004.78;8195949;28;20544;-79
2022/08/26 13:38:20;;;;;;;1999.90;999.90;;;;;;;28.19;46.97;99008.22;8194890;28;20162;-79
2022/08/26 13:42:34;;;;;;;1999.90;999.90;;;;;;;27.99;48.10;99002.66;8192346;28;20043;-78
2022/08/26 13:46:36;;;;;;;1999.90;999.90;;;;;;;27.76;48.21;99005.53;8179630;28;20050;-78
2022/08/26 13:50:38;;;;;;;1999.90;999.90;;;;;;;27.51;48.42;99012.81;8202989;28;20400;-78
2022/08/26 13:54:46;;;;;;;1999.90;999.90;;;;;;;27.21;49.62;98999.25;8201972;28;20043;-78
2022/08/26 13:58:47;;;;;;;;;;;;;;;27.02;50.00;98994.53;8181559;28;20059;-78
2022/08/26 14:02:50;;;;;;;1999.90;999.90;;;;;;;26.77;50.63;99001.75;8201332;28;20275;-79
2022/08/26 14:06:52;;;;;;;;;;;;;;;26.68;51.49;98998.91;8190619;28;20078;-80
2022/08/26 14:11:00;;;;;;;1999.90;999.90;;;;;;;26.49;51.50;99003.00;8202135;28;19941;-79
2022/08/26 14:15:01;;;;;;;1999.90;999.90;;;;;;;26.48;52.42;98998.63;8205888;28;20380;-79
2022/08/26 14:19:06;;;;;;;1999.90;999.90;;;;;;;26.47;52.47;98996.09;8185469;28;20042;-78
2022/08/26 14:23:15;;;;;;;1999.90;999.90;;;;;;;26.45;52.80;99004.19;8197093;28;20077;-79
2022/08/26 14:27:17;;;;;;;1999.90;999.90;;;;;;;26.45;52.41;98998.03;8185496;28;20147;-78
2022/08/26 14:31:19;;;;;;;;;;;;;;;26.50;52.33;99010.00;8205607;28;20150;-79
2022/08/26 14:35:24;;;;;;;1999.90;999.90;;;;;;;26.56;51.46;99014.00;8203275;28;19937;-79
2022/08/26 14:39:32;;;;;;;1999.90;999.90;;;;;;;26.49;51.49;99005.66;8195047;28;20043;-78
2022/08/26 14:43:35;;;;;;;1999.90;999.90;;;;;;;26.44;51.30;98999.84;8218797;28;20045;-79
2022/08/26 14:47:36;;;;;;;1999.90;999.90;;;;;;;26.37;50.94;99001.25;8175431;28;20082;-79
2022/08/26 14:51:42;;;;;;;1999.90;999.90;;;;;;;26.34;51.80;98995.28;8212794;28;20070;-80
2022/08/26 14:55:44;;;;;;;1999.90;999.90;;;;;;;26.37;51.52;98989.75;8194110;28;20054;-79
2022/08/26 14:59:49;;;;;;;1999.90;999.90;;;;;;;26.25;50.90;98986.19;8203269;28;20053;-79
2022/08/26 15:03:51;;;;;;;1999.90;999.90;;;;;;;26.24;51.33;98992.47;8206372;28;20054;-80
2022/08/26 15:07:53;;;;;;;1999.90;999.90;;;;;;;26.17;51.16;98999.19;8190864;28;20039;-79
2022/08/26 15:12:02;;;;;;;1999.90;999.90;;;;;;;26.16;50.99;98998.34;8201607;28;20089;-80
2022/08/26 15:16:03;;;;;;;1999.90;999.90;;;;;;;26.12;51.15;98991.56;8202551;28;20047;-80
2022/08/26 15:20:08;;;;;;;1999.90;999.90;;;;;;;25.99;51.03;98984.59;8197244;28;20050;-80
2022/08/26 15:24:11;;;;;;;1999.90;999.90;;;;;;;25.97;51.21;98981.22;8203392;28;20473;-79
2022/08/26 15:28:20;;;;;;;1999.90;999.90;;;;;;;25.88;51.47;98977.44;8180803;28;20560;-80
2022/08/26 15:32:29;;;;;;;1999.90;999.90;;;;;;;25.82;51.80;98985.84;8194715;28;20054;-80
2022/08/26 15:36:32;;;;;;;1999.90;999.90;;;;;;;25.87;52.04;99000.53;8189606;28;20508;-80
2022/08/26 15:40:34;;;;;;;1999.90;999.90;;;;;;;25.82;52.18;99023.94;8191906;28;20051;-78
2022/08/26 15:44:36;;;;;;;1999.90;999.90;;;;;;;25.78;52.98;99040.25;8196203;28;20051;-78
2022/08/26 15:48:37;;;;;;;;;;;;;;;25.69;53.12;99024.97;8197665;28;20046;-78
2022/08/26 15:52:39;;;;;;;;;;;;;;;25.60;53.68;99027.28;8200652;28;19936;-77
2022/08/26 15:56:40;;;;;;;1999.90;999.90;;;;;;;25.51;53.75;99033.28;8184040;28;19957;-78
2022/08/26 16:00:43;;;;;;;1999.90;999.90;;;;;;;25.34;53.82;99009.69;8193739;28;20692;-78
2022/08/26 16:04:52;;;;;;;1999.90;999.90;;;;;;;25.24;54.66;99020.13;8190230;28;20047;-78
2022/08/26 16:08:55;;;;;;;1999.90;999.90;;;;;;;25.13;54.47;99012.03;8192304;28;20067;-78
2022/08/26 16:13:04;;;;;;;1999.90;999.90;;;;;;;25.08;55.22;99005.34;8172637;28;20081;-78
2022/08/26 16:17:05;;;;;;;1999.90;999.90;;;;;;;25.08;55.12;99006.19;8199723;28;20051;-78
2022/08/26 16:21:16;;;;;;;1999.90;999.90;;;;;;;25.06;54.94;99013.44;8164809;28;20074;-78
2022/08/26 16:25:19;;;;;;;1999.90;999.90;;;;;;;25.06;55.11;99036.50;8174079;28;20065;-78
2022/08/26 16:29:20;;;;;;;1999.90;999.90;;;;;;;25.08;54.95;99043.41;8185406;28;20055;-78
2022/08/26 16:33:21;;;;;;;1999.90;999.90;;;;;;;25.01;55.00;99034.16;8183494;28;20039;-78
2022/08/26 16:37:30;;;;;;;1999.90;999.90;;;;;;;25.03;55.39;99028.75;8192048;28;20042;-78
2022/08/26 16:41:32;;;;;;;1999.90;999.90;;;;;;;25.03;55.11;99042.03;8181044;28;20078;-78
2022/08/26 16:45:40;;;;;;;1999.90;999.90;;;;;;;25.01;54.99;99020.88;8175095;28;20050;-77
2022/08/26 16:49:42;;;;;;;1999.90;999.90;;;;;;;25.00;55.59;99028.00;8189981;28;20460;-78
2022/08/26 16:53:44;;;;;;;1999.90;999.90;;;;;;;24.94;55.65;99033.69;8192530;28;20165;-78
2022/08/26 16:57:46;;;;;;;1999.90;999.90;;;;;;;24.89;55.64;99038.47;8191005;28;20046;-78
2022/08/26 17:01:48;;;;;;;1999.90;999.90;;;;;;;24.83;56.10;99028.28;8189071;28;20753;-78
2022/08/26 17:05:56;;;;;;;1999.90;999.90;;;;;;;24.76;56.57;99034.94;8169091;28;20047;-78
2022/08/26 17:09:57;;;;;;;1999.90;999.90;;;;;;;24.66;56.43;99028.59;8202118;28;20115;-78
2022/08/26 17:13:59;;;;;;;1999.90;999.90;;;;;;;24.55;56.52;99021.34;8180208;28;20094;-78
2022/08/26 17:18:00;;;;;;;1999.90;999.90;;;;;;;24.45;56.42;99028.22;8182335;28;20043;-78
2022/08/26 17:22:02;;;;;;;1999.90;999.90;;;;;;;24.35;56.96;99027.13;8204317;28;20042;-78
2022/08/26 17:26:07;;;;;;;1999.90;999.90;;;;;;;24.26;57.19;99017.09;8191182;28;20074;-78
2022/08/26 17:30:09;;;;;;;1999.90;999.90;;;;;;;24.20;57.72;99022.81;8206436;28;20058;-80
2022/08/26 17:34:10;;;;;;;1999.90;999.90;;;;;;;24.08;57.79;99011.22;8185109;28;20059;-80
2022/08/26 17:38:19;;;;;;;1999.90;999.90;;;;;;;23.96;58.48;99012.00;8198519;28;20122;-80
2022/08/26 17:42:21;;;;;;;1999.90;999.90;;;;;;;23.84;58.48;99015.44;8212873;28;20984;-80
2022/08/26 17:46:32;;;;;;;1999.90;999.90;;;;;;;23.74;58.89;99009.91;8182478;28;20050;-79
2022/08/26 17:50:41;;;;;;;1999.90;999.90;;;;;;;23.67;59.74;99021.84;8193467;28;20062;-80
2022/08/26 17:54:42;;;;;;;1999.90;999.90;;;;;;;23.60;59.67;99033.78;8201634;28;20046;-80
2022/08/26 17:58:45;;;;;;;1999.90;999.90;;;;;;;23.50;59.94;99034.31;8209654;28;20046;-80
2022/08/26 18:02:53;;;;;;;1999.90;999.90;;;;;;;23.48;60.34;99035.38;8197923;28;20487;-79
2022/08/26 18:07:00;;;;;;;1999.90;999.90;;;;;;;23.39;60.37;99028.88;8210883;28;20047;-80
2022/08/26 18:11:12;;;;;;;1999.90;999.90;;;;;;;23.32;61.07;99030.16;8204141;28;20047;-81
2022/08/26 18:15:17;;;;;;;1999.90;999.90;;;;;;;23.29;61.52;99037.47;8205606;28;20404;-80
2022/08/26 18:19:20;;;;;;;1999.90;999.90;;;;;;;23.21;62.08;99027.34;8182971;28;20089;-80
2022/08/26 18:23:23;;;;;;;1999.90;999.90;;;;;;;23.08;62.94;99034.34;8205465;28;20043;-80
2022/08/26 18:27:27;;;;;;;1999.90;999.90;;;;;;;22.99;64.16;99037.56;8188010;28;20090;-80